Huvudsida
METAR-TAF:

METAR-TAF

Flygplatser :

Dar es-Salaam, Tanzania

latitud: 06-52S, longitud: 039-12E, höjd: 55 m

Aktuellt väderrapport

Denna rapport gjordes för 4 timmar och 55 minuter sedan, klockan 05:00 UTC
Vind 5 kt från syd/sydväst
Temperatur 22°C
Fuktighet 83%
Tryck 1019 hPa
Sikt 10 km eller mer
Spridda moln på en höjd av 1100 ft

METAR: HTDA 190500Z 21005KT 9999 SCT011 22/19 Q1019 NOSIG

Tid: 12:55 (09:55 UTC)

Väderprognos

Denna rapport gjordes för 4 timmar och 55 minuter sedan, klockan 05:00 UTC
Prognos gäller från 19 kl. 06 UTC till 20 kl. 12 UTC
Vind 10 kt från syd/sydväst
Sikt 10 km eller mer
Brutna moln på en höjd av 2000 ft
Blir
från 20 kl. 00 UTC till 20 kl. 03 UTC
Vind kt från nord
Få moln på en höjd av 1000 ft

TAF: HTDA 190500Z 1906/2012 21010KT 9999 BKN020 BECMG 2000/2003 00000KT FEW010

Aktuella väderrapporter och prognoser från 4000 flygplatser (METAR- och TAF-rapporter).

De tillgängliga stationerna syns som gula och röda prickar på kartan.

För musen över prickarna för att se namnen på stationerna.

Klicka sedan för att få väderrapporter och prognoser.

För att ändra kartan: Klicka på de gröna knapparna med ett svart kors på för att zooma in; den gröna knappen med ett streck på för att zooma ut; eller på de gröna pilarna för angränsande kartor.


METAR-TAF: